Time;durP1;ratioP1;P1;durP2;ratioP2;P2;SDS_P1;SDS_P2;PMS_P1;PMS_P2;Temp;Humidity;BMP_temperature;BMP_pressure;BME280_temperature;BME280_humidity;BME280_pressure;Samples;Min_cycle;Max_cycle;Signal;HPM_P1;HPM_P2
2023/03/19 00:01:10;;;;;;;14.63;10.23;;;;;;;11.90;92.51;100964.94;5031018;28;20041;-45
2023/03/19 00:03:36;;;;;;;15.70;10.40;;;;;;;11.83;92.38;100962.59;5030967;28;20036;-43
2023/03/19 00:06:01;;;;;;;14.25;10.23;;;;;;;11.86;92.81;100968.31;5031130;28;20037;-45
2023/03/19 00:08:27;;;;;;;15.00;10.30;;;;;;;11.83;93.25;100962.59;5031059;28;20040;-44
2023/03/19 00:10:52;;;;;;;15.50;10.35;;;;;;;11.82;93.19;100966.50;5034250;28;20025;-42
2023/03/19 00:13:18;;;;;;;14.52;9.90;;;;;;;11.81;92.82;100965.69;5034604;28;20117;-43
2023/03/19 00:15:44;;;;;;;13.52;9.90;;;;;;;11.82;93.46;100960.94;5034145;28;20096;-45
2023/03/19 00:18:09;;;;;;;13.35;9.90;;;;;;;11.77;93.77;100970.19;5028803;28;20120;-41
2023/03/19 00:20:35;;;;;;;14.48;9.77;;;;;;;11.75;94.01;100964.16;5031954;28;20054;-42
2023/03/19 00:23:00;;;;;;;14.27;9.90;;;;;;;11.71;94.15;100958.41;5034262;28;20042;-43
2023/03/19 00:25:26;;;;;;;14.23;10.07;;;;;;;11.70;94.71;100961.50;5033010;28;20038;-42
2023/03/19 00:27:53;;;;;;;14.05;10.20;;;;;;;11.66;94.29;100958.53;5034140;28;20032;-42
2023/03/19 00:30:19;;;;;;;13.77;9.98;;;;;;;11.70;94.54;100967.88;5033934;28;20079;-43
2023/03/19 00:32:44;;;;;;;14.65;10.10;;;;;;;11.70;94.63;100978.97;5034204;28;20029;-44
2023/03/19 00:35:09;;;;;;;13.75;10.30;;;;;;;11.61;94.29;100961.44;5033840;28;20114;-42
2023/03/19 00:37:35;;;;;;;13.13;10.00;;;;;;;11.70;94.98;100984.50;5034098;28;20082;-42
2023/03/19 00:40:00;;;;;;;13.75;10.18;;;;;;;11.68;95.16;100967.34;5032366;28;20113;-42
2023/03/19 00:42:26;;;;;;;12.23;10.00;;;;;;;11.71;94.76;100991.66;5033066;28;20116;-43
2023/03/19 00:44:51;;;;;;;15.45;10.40;;;;;;;11.70;95.23;100978.13;5033834;28;20044;-43
2023/03/19 00:47:17;;;;;;;15.35;10.52;;;;;;;11.68;95.13;100975.66;5033709;28;20113;-42
2023/03/19 00:49:43;;;;;;;13.88;10.27;;;;;;;11.65;95.63;100981.81;5034009;28;20033;-42
2023/03/19 00:52:08;;;;;;;15.27;10.60;;;;;;;11.67;95.60;100984.28;5033640;28;20473;-43
2023/03/19 00:54:33;;;;;;;15.15;10.73;;;;;;;11.67;95.59;100985.13;5032957;28;20096;-42
2023/03/19 00:56:59;;;;;;;15.45;10.60;;;;;;;11.65;95.77;100976.28;5032788;28;20026;-42
2023/03/19 00:59:24;;;;;;;13.68;10.40;;;;;;;11.63;95.92;100983.28;5032200;28;20385;-42
2023/03/19 01:01:50;;;;;;;16.38;10.57;;;;;;;11.58;96.11;100981.44;5033444;28;20026;-42
2023/03/19 01:04:16;;;;;;;16.33;10.60;;;;;;;11.59;96.26;100974.75;5033245;28;20029;-43
2023/03/19 01:06:41;;;;;;;14.82;10.70;;;;;;;11.55;96.35;100985.66;5033560;28;20056;-43
2023/03/19 01:09:07;;;;;;;16.50;10.93;;;;;;;11.56;96.40;100992.00;5033291;28;20033;-43
2023/03/19 01:11:32;;;;;;;14.68;10.57;;;;;;;11.54;96.77;100986.78;5033298;28;20396;-45
2023/03/19 01:13:58;;;;;;;15.63;10.63;;;;;;;11.51;96.52;100987.38;5033125;28;20041;-42
2023/03/19 01:16:23;;;;;;;16.88;10.82;;;;;;;11.53;96.94;100987.06;5033172;28;20038;-42
2023/03/19 01:18:48;;;;;;;17.55;11.00;;;;;;;11.52;96.53;100985.44;5026800;28;20321;-42
2023/03/19 01:21:13;;;;;;;16.08;10.70;;;;;;;11.49;96.57;100978.56;5032627;28;20056;-43
2023/03/19 01:23:39;;;;;;;15.90;10.70;;;;;;;11.51;97.24;100981.84;5033183;28;20103;-43
2023/03/19 01:26:05;;;;;;;15.77;10.82;;;;;;;11.47;96.83;100980.00;5033064;28;20037;-43
2023/03/19 01:28:30;;;;;;;15.93;10.93;;;;;;;11.47;96.97;100977.22;5033522;28;20028;-43
2023/03/19 01:31:00;;;;;;;17.05;11.10;;;;;;;11.46;97.79;100978.34;5032877;28;20026;-43
2023/03/19 01:33:26;;;;;;;16.70;11.05;;;;;;;11.41;97.21;100972.94;5032895;28;20021;-42
2023/03/19 01:35:51;;;;;;;14.88;10.90;;;;;;;11.44;97.23;100975.91;5033073;28;20041;-43
2023/03/19 01:38:17;;;;;;;16.83;11.00;;;;;;;11.44;97.71;100975.91;5033076;28;20025;-43
2023/03/19 01:40:47;;;;;;;17.27;11.55;;;;;;;11.44;97.44;100977.84;5032886;28;20499;-45
2023/03/19 01:43:14;;;;;;;15.68;11.20;;;;;;;11.44;97.32;100969.53;5032663;28;20057;-44
2023/03/19 01:45:41;;;;;;;17.40;11.38;;;;;;;11.42;97.81;100972.63;5036983;28;20065;-46
2023/03/19 01:48:17;;;;;;;17.30;11.18;;;;;;;11.45;97.80;100971.16;5052559;28;20029;-43
2023/03/19 01:50:44;;;;;;;16.45;11.18;;;;;;;11.41;97.54;100967.41;5052565;28;20068;-43
2023/03/19 01:53:12;;;;;;;17.60;11.50;;;;;;;11.45;97.62;100968.41;5052581;28;20029;-43
2023/03/19 01:55:39;;;;;;;17.30;11.35;;;;;;;11.43;97.46;100967.91;5052429;28;20021;-43
2023/03/19 01:58:06;;;;;;;17.80;11.75;;;;;;;11.42;97.83;100969.03;5052477;28;20037;-43
2023/03/19 02:00:37;;;;;;;16.60;11.20;;;;;;;11.35;97.82;100975.00;5052154;28;20029;-44
2023/03/19 02:03:02;;;;;;;17.55;11.88;;;;;;;11.36;98.20;100974.66;5071756;28;20041;-43
2023/03/19 02:05:29;;;;;;;16.33;11.20;;;;;;;11.34;98.56;100973.34;5072430;28;20028;-43
2023/03/19 02:08:01;;;;;;;17.00;11.40;;;;;;;11.23;98.84;100965.22;5071546;28;20031;-44
2023/03/19 02:10:28;;;;;;;16.63;11.20;;;;;;;11.20;98.41;100962.25;5072195;28;20028;-44
2023/03/19 02:12:54;;;;;;;16.75;11.40;;;;;;;11.23;98.72;100976.31;5071916;28;20056;-43
2023/03/19 02:15:19;;;;;;;16.35;11.38;;;;;;;11.23;99.10;100968.00;5072008;28;20102;-42
2023/03/19 02:17:45;;;;;;;17.52;11.40;;;;;;;11.22;98.74;100976.63;5071500;28;20102;-43
2023/03/19 02:20:21;;;;;;;19.17;11.80;;;;;;;11.24;99.21;100968.84;5066536;28;20094;-44
2023/03/19 02:23:07;;;;;;;18.40;12.18;;;;;;;11.22;98.81;100969.13;5071733;28;20029;-44
2023/03/19 02:25:47;;;;;;;17.40;12.23;;;;;;;11.21;99.49;100970.25;5072022;28;20029;-43
2023/03/19 02:28:16;;;;;;;18.48;11.80;;;;;;;11.13;99.85;100967.41;5071934;28;20033;-42
2023/03/19 02:30:43;;;;;;;17.02;11.70;;;;;;;11.13;100.00;100970.97;5059417;28;20071;-43
2023/03/19 02:33:12;;;;;;;18.20;12.15;;;;;;;11.14;100.00;100978.16;5051688;28;20099;-44
2023/03/19 02:35:38;;;;;;;18.20;12.57;;;;;;;11.18;100.00;100987.50;5052139;28;20025;-43
2023/03/19 02:38:04;;;;;;;18.70;12.18;;;;;;;11.15;100.00;100977.03;5070300;28;20039;-42
2023/03/19 02:40:36;;;;;;;18.55;12.30;;;;;;;11.13;100.00;100975.69;5071940;28;20107;-42
2023/03/19 02:43:01;;;;;;;18.48;12.50;;;;;;;11.14;100.00;100985.66;5071612;28;20035;-42
2023/03/19 02:45:31;;;;;;;17.95;12.40;;;;;;;11.14;100.00;100978.16;5071876;28;20028;-42
2023/03/19 02:47:56;;;;;;;17.77;12.05;;;;;;;11.12;100.00;100982.38;5071714;28;20032;-42
2023/03/19 02:50:22;;;;;;;19.52;12.38;;;;;;;11.11;100.00;100991.78;5071869;28;20032;-42
2023/03/19 02:52:47;;;;;;;19.08;12.88;;;;;;;11.10;100.00;100992.91;5071539;28;20102;-42
2023/03/19 02:55:13;;;;;;;18.58;12.38;;;;;;;11.07;100.00;100991.59;5071835;28;20036;-42
2023/03/19 02:57:38;;;;;;;17.27;12.13;;;;;;;11.06;100.00;100989.94;5071540;28;20495;-41
2023/03/19 03:00:06;;;;;;;18.15;12.57;;;;;;;11.05;100.00;100993.84;5071701;28;20024;-43
2023/03/19 03:02:32;;;;;;;17.70;12.30;;;;;;;11.02;100.00;101000.81;5071715;28;20060;-42
2023/03/19 03:04:57;;;;;;;18.98;12.32;;;;;;;11.00;100.00;100992.00;5071670;28;20101;-43
2023/03/19 03:07:22;;;;;;;18.48;12.50;;;;;;;11.01;100.00;100995.56;5071317;28;20097;-43
2023/03/19 03:09:48;;;;;;;17.77;12.43;;;;;;;11.02;100.00;100999.97;5071820;28;20039;-42
2023/03/19 03:12:13;;;;;;;18.83;12.50;;;;;;;10.99;100.00;100990.34;5071491;28;20448;-43
2023/03/19 03:14:39;;;;;;;19.02;12.82;;;;;;;10.98;100.00;100991.47;5071473;28;20024;-42
2023/03/19 03:17:07;;;;;;;18.15;12.50;;;;;;;10.97;100.00;100997.31;5071381;28;20048;-46
2023/03/19 03:19:32;;;;;;;18.45;12.60;;;;;;;10.97;100.00;101000.88;5064419;28;20037;-42
2023/03/19 03:21:59;;;;;;;18.77;12.77;;;;;;;10.95;100.00;100994.03;5071325;28;20028;-42
2023/03/19 03:24:24;;;;;;;18.52;12.75;;;;;;;10.98;100.00;100996.19;5071612;28;20100;-42
2023/03/19 03:26:50;;;;;;;18.95;12.82;;;;;;;10.97;100.00;100992.59;5071239;28;20116;-42
2023/03/19 03:29:15;;;;;;;19.30;13.00;;;;;;;10.95;100.00;100999.56;5071399;28;20179;-43
2023/03/19 03:31:41;;;;;;;20.08;12.82;;;;;;;10.88;100.00;100991.66;5071215;28;20070;-43
2023/03/19 03:34:06;;;;;;;19.15;13.13;;;;;;;10.90;100.00;101000.47;5071372;28;20111;-44
2023/03/19 03:36:32;;;;;;;19.77;13.43;;;;;;;10.86;100.00;100991.16;5069991;28;20353;-43
2023/03/19 03:38:58;;;;;;;21.23;13.40;;;;;;;10.87;100.00;100995.53;5070288;28;20024;-43
2023/03/19 03:41:23;;;;;;;18.75;13.43;;;;;;;10.86;100.00;100994.72;5070905;28;20042;-43
2023/03/19 03:43:49;;;;;;;18.70;13.18;;;;;;;10.87;100.00;100990.00;5071344;28;20371;-42
2023/03/19 03:46:14;;;;;;;19.58;13.52;;;;;;;10.85;100.00;100990.31;5075077;28;20039;-42
2023/03/19 03:48:40;;;;;;;19.77;13.70;;;;;;;10.84;100.00;100991.44;5073452;28;20035;-42
2023/03/19 03:51:05;;;;;;;19.58;13.88;;;;;;;10.82;100.00;100999.22;5075166;28;20115;-43
2023/03/19 03:53:30;;;;;;;20.02;13.70;;;;;;;10.81;100.00;100994.00;5074686;28;20119;-43
2023/03/19 03:55:56;;;;;;;20.73;14.05;;;;;;;10.76;100.00;101000.44;5075010;28;20445;-43
2023/03/19 03:58:22;;;;;;;19.85;13.82;;;;;;;10.72;100.00;101007.72;5074678;28;20032;-43
2023/03/19 04:00:48;;;;;;;20.05;13.98;;;;;;;10.66;100.00;101000.63;5074850;28;20116;-42
2023/03/19 04:03:14;;;;;;;19.45;14.20;;;;;;;10.64;100.00;101002.84;5074207;28;20033;-44
2023/03/19 04:05:39;;;;;;;20.48;14.35;;;;;;;10.64;100.00;101011.16;5074838;28;20059;-42
2023/03/19 04:08:06;;;;;;;20.48;14.45;;;;;;;10.64;100.00;101002.84;5074351;28;20539;-42
2023/03/19 04:10:34;;;;;;;20.15;14.02;;;;;;;10.59;100.00;101012.91;5074679;28;20025;-42
2023/03/19 04:13:00;;;;;;;19.58;13.90;;;;;;;10.55;100.00;101014.63;5062037;28;20033;-42
2023/03/19 04:15:25;;;;;;;20.17;14.75;;;;;;;10.49;100.00;101020.53;5053138;28;20040;-42
2023/03/19 04:17:50;;;;;;;20.30;14.05;;;;;;;10.45;100.00;101010.09;5053756;28;20029;-42
2023/03/19 04:20:17;;;;;;;20.17;13.50;;;;;;;10.47;100.00;101001.47;5047832;28;20499;-43
2023/03/19 04:22:43;;;;;;;20.88;13.68;;;;;;;10.43;100.00;101004.03;5053649;28;20037;-44
2023/03/19 04:25:09;;;;;;;19.27;13.80;;;;;;;10.43;100.00;101006.78;5054273;28;20131;-43
2023/03/19 04:27:34;;;;;;;20.23;14.38;;;;;;;10.39;100.00;101007.69;5053163;28;20033;-43
2023/03/19 04:29:59;;;;;;;20.60;14.00;;;;;;;10.40;100.00;101018.44;5054345;28;20025;-43
2023/03/19 04:32:25;;;;;;;20.27;14.15;;;;;;;10.38;100.00;101015.19;5054310;28;20039;-44
2023/03/19 04:34:50;;;;;;;19.33;13.88;;;;;;;10.38;100.00;101011.59;5054137;28;20511;-43
2023/03/19 04:37:15;;;;;;;19.70;13.68;;;;;;;10.40;100.00;101020.41;5054232;28;20459;-43
2023/03/19 04:39:41;;;;;;;20.70;14.38;;;;;;;10.34;100.00;101013.28;5052357;28;20388;-43
2023/03/19 04:42:06;;;;;;;20.55;14.23;;;;;;;10.33;100.00;101025.47;5054086;28;20036;-43
2023/03/19 04:44:32;;;;;;;20.52;14.27;;;;;;;10.32;100.00;101015.53;5052612;28;20039;-42
2023/03/19 04:46:57;;;;;;;20.35;14.30;;;;;;;10.31;100.00;101017.47;5054167;28;20120;-43
2023/03/19 04:49:23;;;;;;;20.13;14.10;;;;;;;10.26;100.00;101020.31;5053941;28;20029;-43
2023/03/19 04:51:49;;;;;;;21.48;14.68;;;;;;;10.22;100.00;101020.09;5053970;28;20028;-43
2023/03/19 04:54:14;;;;;;;20.95;14.50;;;;;;;10.21;100.00;101017.63;5054056;28;20441;-43
2023/03/19 04:56:40;;;;;;;21.25;14.85;;;;;;;10.19;100.00;101014.34;5052515;28;20122;-43
2023/03/19 04:59:05;;;;;;;21.08;14.32;;;;;;;10.20;100.00;101016.00;5052579;28;20538;-45
2023/03/19 05:01:31;;;;;;;20.80;14.68;;;;;;;10.11;100.00;101026.88;5052837;28;20036;-43
2023/03/19 05:03:57;;;;;;;19.73;14.18;;;;;;;10.07;100.00;101021.13;5053378;28;20037;-43
2023/03/19 05:06:23;;;;;;;20.35;14.77;;;;;;;10.01;100.00;101027.88;5053512;28;20031;-43
2023/03/19 05:08:48;;;;;;;20.08;14.85;;;;;;;10.04;100.00;101026.44;5053772;28;20450;-43
2023/03/19 05:11:13;;;;;;;20.35;14.45;;;;;;;10.03;100.00;101038.63;5053731;28;20118;-44
2023/03/19 05:13:38;;;;;;;20.98;14.90;;;;;;;9.97;100.00;101037.88;5053644;28;20060;-44
2023/03/19 05:16:04;;;;;;;20.60;14.82;;;;;;;9.96;100.00;101045.34;5053459;28;20044;-43
2023/03/19 05:18:29;;;;;;;20.80;14.82;;;;;;;9.94;100.00;101055.88;5047816;28;20091;-42
2023/03/19 05:20:55;;;;;;;20.27;15.02;;;;;;;9.94;100.00;101043.97;5052755;28;20098;-43
2023/03/19 05:23:21;;;;;;;21.13;15.23;;;;;;;9.95;100.00;101056.69;5053448;28;20025;-42
2023/03/19 05:25:47;;;;;;;21.83;15.88;;;;;;;9.92;100.00;101055.34;5053454;28;20025;-44
2023/03/19 05:28:12;;;;;;;21.75;15.15;;;;;;;9.85;100.00;101057.66;5053261;28;20033;-44
2023/03/19 05:30:38;;;;;;;23.05;15.52;;;;;;;9.76;100.00;101051.13;5053352;28;20399;-43
2023/03/19 05:33:04;;;;;;;20.60;15.18;;;;;;;9.74;100.00;101056.94;5052963;28;20056;-43
2023/03/19 05:35:30;;;;;;;21.60;15.50;;;;;;;9.72;100.00;101059.19;5052652;28;20029;-43
2023/03/19 05:37:55;;;;;;;21.05;15.25;;;;;;;9.67;100.00;101054.56;5053149;28;20036;-42
2023/03/19 05:40:22;;;;;;;20.67;15.00;;;;;;;9.65;100.00;101064.22;5053030;28;20036;-42
2023/03/19 05:42:47;;;;;;;20.90;14.50;;;;;;;9.60;100.00;101064.31;5053031;28;20110;-42
2023/03/19 05:45:13;;;;;;;21.60;14.82;;;;;;;9.59;100.00;101068.19;5052828;28;20088;-43
2023/03/19 05:47:39;;;;;;;21.40;15.10;;;;;;;9.55;100.00;101067.94;5053024;28;20055;-42
2023/03/19 05:50:06;;;;;;;20.75;14.50;;;;;;;9.49;100.00;101069.94;5052907;28;20396;-43
2023/03/19 05:52:31;;;;;;;20.95;14.30;;;;;;;9.47;100.00;101063.88;5052666;28;20035;-43
2023/03/19 05:54:56;;;;;;;21.17;14.70;;;;;;;9.39;100.00;101069.25;5052778;28;20032;-43
2023/03/19 05:57:22;;;;;;;20.60;14.40;;;;;;;9.41;100.00;101078.88;5052724;28;20040;-43
2023/03/19 05:59:47;;;;;;;22.73;15.88;;;;;;;9.42;100.00;101075.00;5051176;28;20036;-44
2023/03/19 06:02:13;;;;;;;22.52;15.75;;;;;;;9.41;100.00;101081.63;5052861;28;20025;-43
2023/03/19 06:04:39;;;;;;;22.27;15.95;;;;;;;9.44;100.00;101077.47;5052219;28;20032;-43
2023/03/19 06:07:05;;;;;;;21.95;15.55;;;;;;;9.39;100.00;101070.06;5052100;28;20051;-44
2023/03/19 06:09:30;;;;;;;22.27;15.77;;;;;;;9.37;100.00;101077.78;5052351;28;20108;-43
2023/03/19 06:11:56;;;;;;;22.77;16.17;;;;;;;9.32;100.00;101078.66;5052496;28;20111;-43
2023/03/19 06:14:22;;;;;;;22.15;15.50;;;;;;;9.30;100.00;101080.09;5061704;28;20687;-43
2023/03/19 06:16:48;;;;;;;23.30;15.52;;;;;;;9.28;100.00;101076.78;5072371;28;20035;-43
2023/03/19 06:19:13;;;;;;;21.77;15.43;;;;;;;9.29;100.00;101087.56;5071973;28;20036;-43
2023/03/19 06:21:38;;;;;;;22.23;14.85;;;;;;;9.30;100.00;101096.66;5072143;28;20044;-43
2023/03/19 06:24:04;;;;;;;21.25;14.45;;;;;;;9.27;100.00;101100.81;5071859;28;20033;-43
2023/03/19 06:26:29;;;;;;;22.60;14.70;;;;;;;9.32;100.00;101098.00;5072188;28;20036;-43
2023/03/19 06:28:54;;;;;;;21.75;14.70;;;;;;;9.30;100.00;101103.00;5071843;28;20032;-44
2023/03/19 06:31:20;;;;;;;22.20;14.77;;;;;;;9.25;100.00;101105.81;5072293;28;20031;-44
2023/03/19 06:33:46;;;;;;;21.02;15.13;;;;;;;9.23;100.00;101105.28;5071847;28;20058;-42
2023/03/19 06:36:11;;;;;;;22.25;14.98;;;;;;;9.25;100.00;101105.81;5072174;28;20032;-43
2023/03/19 06:38:36;;;;;;;21.42;15.15;;;;;;;9.19;100.00;101104.22;5070508;28;20479;-43
2023/03/19 06:41:02;;;;;;;22.40;15.15;;;;;;;9.23;100.00;101113.56;5044974;28;20025;-43
2023/03/19 06:43:28;;;;;;;22.13;15.27;;;;;;;9.21;100.00;101113.84;5042563;28;20026;-43
2023/03/19 06:45:53;;;;;;;22.30;15.68;;;;;;;9.13;100.00;101097.91;5041190;28;20168;-42
2023/03/19 06:48:18;;;;;;;21.90;15.90;;;;;;;9.23;100.00;101118.25;5042753;28;20489;-44
2023/03/19 06:50:45;;;;;;;22.17;16.02;;;;;;;9.23;100.00;101124.59;5042456;28;20075;-43
2023/03/19 06:53:11;;;;;;;23.27;15.93;;;;;;;9.26;100.00;101126.78;5042577;28;20033;-43
2023/03/19 06:55:36;;;;;;;21.92;15.57;;;;;;;9.17;100.00;101107.25;5039674;28;20100;-43
2023/03/19 06:58:02;;;;;;;22.40;15.77;;;;;;;9.36;100.00;101134.13;5034264;28;20028;-43
2023/03/19 07:00:27;;;;;;;20.98;15.52;;;;;;;9.35;100.00;101125.03;5050480;28;20116;-43
2023/03/19 07:02:52;;;;;;;21.63;15.60;;;;;;;9.39;100.00;101141.03;5051680;28;20021;-42
2023/03/19 07:05:18;;;;;;;22.55;16.27;;;;;;;9.35;100.00;101144.38;5051656;28;20071;-42
2023/03/19 07:07:43;;;;;;;21.95;15.85;;;;;;;9.36;100.00;101140.50;5051732;28;20049;-43
2023/03/19 07:10:09;;;;;;;22.27;16.52;;;;;;;9.32;100.00;101139.41;5043868;28;20025;-42
2023/03/19 07:12:35;;;;;;;23.35;17.55;;;;;;;9.32;100.00;101135.84;5051466;28;20025;-43
2023/03/19 07:15:00;;;;;;;24.88;19.10;;;;;;;9.34;100.00;101137.19;5070993;28;20107;-43
2023/03/19 07:17:26;;;;;;;23.55;17.90;;;;;;;9.37;100.00;101144.06;5071827;28;20484;-42
2023/03/19 07:19:51;;;;;;;23.42;18.05;;;;;;;9.36;100.00;101151.53;5072947;28;20040;-42
2023/03/19 07:22:17;;;;;;;23.67;18.80;;;;;;;9.36;100.00;101157.06;5064327;28;20033;-42
2023/03/19 07:24:43;;;;;;;24.30;18.77;;;;;;;9.30;100.00;101144.44;5055438;28;20037;-43
2023/03/19 07:27:09;;;;;;;23.67;18.58;;;;;;;9.40;100.00;101154.53;5055680;28;20082;-43
2023/03/19 07:29:35;;;;;;;24.23;18.83;;;;;;;9.47;100.00;101156.97;5055562;28;20033;-44
2023/03/19 07:32:00;;;;;;;25.00;18.77;;;;;;;9.51;100.00;101160.78;5055647;28;20025;-43
2023/03/19 07:34:26;;;;;;;23.70;17.63;;;;;;;9.58;100.00;101166.81;5055216;28;20123;-43
2023/03/19 07:36:51;;;;;;;24.15;17.05;;;;;;;9.65;100.00;101167.28;5053950;28;20407;-42
2023/03/19 07:39:17;;;;;;;22.52;16.48;;;;;;;9.71;100.00;101172.75;5055230;28;20044;-43
2023/03/19 07:41:43;;;;;;;23.10;17.25;;;;;;;9.79;100.00;101163.81;5054817;28;20547;-43
2023/03/19 07:44:10;;;;;;;24.52;17.13;;;;;;;9.84;100.00;101166.53;5055278;28;20484;-44
2023/03/19 07:46:35;;;;;;;23.55;16.52;;;;;;;9.93;100.00;101183.28;5054822;28;20079;-44
2023/03/19 07:49:01;;;;;;;24.55;16.10;;;;;;;9.98;100.00;101161.94;5055174;28;20021;-44
2023/03/19 07:51:26;;;;;;;24.05;15.98;;;;;;;10.07;100.00;101173.19;5054875;28;20112;-45
2023/03/19 07:53:51;;;;;;;22.10;15.80;;;;;;;10.14;100.00;101175.59;5054762;28;20083;-46
2023/03/19 07:56:17;;;;;;;23.52;15.70;;;;;;;10.19;100.00;101169.16;5055007;28;20078;-47
2023/03/19 07:58:42;;;;;;;22.17;15.55;;;;;;;10.30;100.00;101177.03;5054898;28;20024;-44
2023/03/19 08:01:07;;;;;;;25.20;15.75;;;;;;;10.35;100.00;101176.16;5054615;28;20194;-43
2023/03/19 08:03:33;;;;;;;22.27;15.35;;;;;;;10.42;100.00;101173.88;5054715;28;20044;-44
2023/03/19 08:05:58;;;;;;;25.90;17.40;;;;;;;10.51;100.00;101178.72;5046640;28;20090;-42
2023/03/19 08:08:24;;;;;;;27.42;18.52;;;;;;;10.63;100.00;101179.13;5054642;28;20527;-43
2023/03/19 08:10:49;;;;;;;25.02;16.27;;;;;;;10.71;100.00;101191.47;5054518;28;20490;-45
2023/03/19 08:13:15;;;;;;;25.00;16.65;;;;;;;10.77;100.00;101174.47;5054620;28;20063;-43
2023/03/19 08:15:41;;;;;;;24.40;15.30;;;;;;;10.84;100.00;101185.16;5054139;28;20106;-43
2023/03/19 08:18:06;;;;;;;26.60;16.67;;;;;;;10.89;100.00;101187.88;5053951;28;20025;-43
2023/03/19 08:20:32;;;;;;;28.80;18.63;;;;;;;10.91;100.00;101182.03;5073817;28;20040;-44
2023/03/19 08:22:57;;;;;;;27.73;17.65;;;;;;;10.92;100.00;101189.22;5074274;28;20375;-44
2023/03/19 08:25:24;;;;;;;25.92;16.13;;;;;;;10.99;100.00;101211.00;5073934;28;20494;-43
2023/03/19 08:27:49;;;;;;;22.70;15.75;;;;;;;11.04;100.00;101194.28;5074090;28;20025;-42
2023/03/19 08:30:16;;;;;;;25.45;16.13;;;;;;;11.14;100.00;101202.44;5074009;28;20036;-43
2023/03/19 08:32:43;;;;;;;25.17;16.73;;;;;;;11.20;100.00;101201.22;5074175;28;20408;-43
2023/03/19 08:35:09;;;;;;;23.25;14.77;;;;;;;11.30;99.91;101211.34;5073917;28;20032;-43
2023/03/19 08:37:35;;;;;;;22.45;14.70;;;;;;;11.41;99.17;101211.16;5072727;28;20090;-42
2023/03/19 08:40:00;;;;;;;21.73;14.07;;;;;;;11.42;98.12;101212.81;5073646;28;20037;-42
2023/03/19 08:42:26;;;;;;;22.92;14.02;;;;;;;11.45;97.72;101212.19;5074037;28;20067;-43
2023/03/19 08:44:51;;;;;;;23.90;14.50;;;;;;;11.43;96.84;101220.81;5073846;28;20036;-43
2023/03/19 08:47:16;;;;;;;24.33;13.73;;;;;;;11.42;96.31;101218.34;5073744;28;20040;-44
2023/03/19 08:49:42;;;;;;;22.25;13.40;;;;;;;11.43;96.13;101220.81;5072392;28;20039;-43
2023/03/19 08:52:08;;;;;;;25.17;14.07;;;;;;;11.42;95.11;101221.13;5073714;28;20070;-43
2023/03/19 08:54:33;;;;;;;20.80;12.60;;;;;;;11.44;95.71;101222.47;5073429;28;20391;-42
2023/03/19 08:57:00;;;;;;;23.10;13.23;;;;;;;11.46;95.70;101222.97;5073691;28;20111;-43
2023/03/19 08:59:26;;;;;;;23.27;13.82;;;;;;;11.49;95.92;101233.44;5073095;28;20033;-42
2023/03/19 09:01:52;;;;;;;21.27;12.65;;;;;;;11.58;94.95;101229.97;5062425;28;20020;-42
2023/03/19 09:04:19;;;;;;;21.67;12.55;;;;;;;11.66;96.10;101234.84;5051279;28;20059;-42
2023/03/19 09:06:45;;;;;;;23.38;12.60;;;;;;;11.73;95.15;101228.88;5050199;28;20116;-43
2023/03/19 09:09:10;;;;;;;23.10;13.00;;;;;;;11.79;94.50;101241.53;5051477;28;20124;-42
2023/03/19 09:11:35;;;;;;;23.08;13.23;;;;;;;11.81;94.01;101236.50;5050061;28;20104;-43
2023/03/19 09:14:01;;;;;;;23.58;13.27;;;;;;;11.90;94.17;101243.00;5051527;28;20571;-42
2023/03/19 09:16:26;;;;;;;21.70;12.05;;;;;;;12.14;93.60;101242.84;5051504;28;20028;-42
2023/03/19 09:18:52;;;;;;;34.55;16.92;;;;;;;12.17;93.77;101246.97;5051522;28;20559;-42
2023/03/19 09:21:17;;;;;;;24.85;15.00;;;;;;;12.23;92.79;101258.78;5049751;28;20406;-42
2023/03/19 09:23:42;;;;;;;27.30;15.25;;;;;;;12.27;93.57;101254.25;5051044;28;20033;-42
2023/03/19 09:26:08;;;;;;;26.92;15.32;;;;;;;12.26;93.67;101256.22;5050950;28;20143;-41
2023/03/19 09:28:33;;;;;;;24.88;15.40;;;;;;;12.28;92.63;101264.22;5048938;28;20550;-41
2023/03/19 09:30:59;;;;;;;22.55;14.75;;;;;;;12.30;93.37;101260.00;5051154;28;20586;-41
2023/03/19 09:33:25;;;;;;;22.98;15.32;;;;;;;12.29;92.66;101265.88;5049848;28;20115;-41
2023/03/19 09:35:52;;;;;;;26.08;15.55;;;;;;;12.33;93.18;101267.72;5049541;28;20060;-41
2023/03/19 09:38:19;;;;;;;23.17;15.30;;;;;;;12.37;92.64;101272.66;5050784;28;20029;-41
2023/03/19 09:40:47;;;;;;;23.92;14.88;;;;;;;12.42;91.85;101275.31;5050565;28;20049;-42
2023/03/19 09:43:34;;;;;;;23.08;14.80;;;;;;;12.43;90.94;101290.84;5048533;28;20029;-42
2023/03/19 09:46:05;;;;;;;23.08;15.18;;;;;;;12.36;90.48;101282.13;5050651;28;20399;-41
2023/03/19 09:48:38;;;;;;;23.17;14.77;;;;;;;12.31;89.42;101291.34;5050741;28;20095;-41
2023/03/19 09:51:06;;;;;;;23.15;15.00;;;;;;;12.23;88.95;101290.09;5049400;28;20045;-42
2023/03/19 09:53:32;;;;;;;22.98;14.60;;;;;;;12.18;88.80;101293.00;5050325;28;20376;-41
2023/03/19 09:56:00;;;;;;;24.53;14.30;;;;;;;12.17;89.33;101286.59;5043560;28;20102;-41
2023/03/19 09:58:34;;;;;;;22.70;14.93;;;;;;;12.20;89.76;101284.34;5050369;28;20812;-42
2023/03/19 10:01:01;;;;;;;22.77;14.98;;;;;;;12.24;91.45;101277.88;5052502;28;20036;-41
2023/03/19 10:03:30;;;;;;;23.90;14.63;;;;;;;12.30;90.51;101286.94;5052235;28;20052;-41
2023/03/19 10:06:16;;;;;;;24.90;14.48;;;;;;;12.29;90.17;101283.31;5052540;28;20128;-42
2023/03/19 10:09:10;;;;;;;23.77;14.32;;;;;;;12.30;90.48;101281.38;5051273;28;20538;-42
2023/03/19 10:11:47;;;;;;;23.05;14.60;;;;;;;12.29;89.37;101288.06;5051152;28;20182;-42
2023/03/19 10:14:33;;;;;;;23.70;14.90;;;;;;;12.25;90.47;101271.22;5049064;28;20112;-42
2023/03/19 10:17:03;;;;;;;23.92;14.50;;;;;;;12.31;89.84;101283.03;5050223;28;20101;-42
2023/03/19 10:19:50;;;;;;;21.35;13.88;;;;;;;12.31;90.93;101277.50;5049758;28;20484;-42
2023/03/19 10:22:20;;;;;;;21.35;13.77;;;;;;;12.26;89.31;101281.19;5050058;28;20062;-42
2023/03/19 10:24:49;;;;;;;24.25;14.30;;;;;;;12.34;89.02;101296.28;5049990;28;20499;-42
2023/03/19 10:27:21;;;;;;;22.90;14.05;;;;;;;12.38;90.18;101286.22;5050717;28;20527;-42
2023/03/19 10:29:47;;;;;;;23.38;13.88;;;;;;;12.45;89.65;101292.16;5051322;28;20064;-42
2023/03/19 10:32:19;;;;;;;21.75;13.52;;;;;;;12.48;89.16;101294.34;5051289;28;20057;-42
2023/03/19 10:34:52;;;;;;;22.10;13.20;;;;;;;12.54;88.63;101291.44;5052006;28;20071;-42
2023/03/19 10:37:24;;;;;;;21.37;13.20;;;;;;;12.57;87.68;101293.63;5051954;28;20032;-42
2023/03/19 10:39:51;;;;;;;21.42;12.90;;;;;;;12.70;88.93;101297.50;5050419;28;20284;-42
2023/03/19 10:42:34;;;;;;;22.30;13.68;;;;;;;12.82;89.41;101289.50;5051694;28;20100;-42
2023/03/19 10:45:20;;;;;;;26.40;15.25;;;;;;;12.99;88.81;101304.69;5051659;28;20033;-42
2023/03/19 10:47:48;;;;;;;27.77;16.50;;;;;;;13.12;87.65;101303.84;5051774;28;20025;-42
2023/03/19 10:50:17;;;;;;;22.65;13.98;;;;;;;13.21;86.68;101303.91;5059475;28;20036;-42
2023/03/19 10:52:43;;;;;;;22.42;14.27;;;;;;;13.24;85.39;101306.06;5071734;28;20040;-42
2023/03/19 10:55:17;;;;;;;25.80;14.60;;;;;;;13.27;85.09;101313.78;5070352;28;20174;-42
2023/03/19 10:57:49;;;;;;;22.73;14.40;;;;;;;13.26;86.92;101303.81;5070104;28;20021;-42
2023/03/19 11:00:16;;;;;;;21.90;13.63;;;;;;;13.41;85.48;101319.34;5071539;28;20032;-42
2023/03/19 11:02:47;;;;;;;24.80;16.55;;;;;;;13.44;85.61;101321.47;5071717;28;20028;-42
2023/03/19 11:05:13;;;;;;;24.83;16.15;;;;;;;13.45;85.49;101319.53;5071042;28;20037;-42